Time;durP1;ratioP1;P1;durP2;ratioP2;P2;SDS_P1;SDS_P2;PMS_P1;PMS_P2;Temp;Humidity;BMP_temperature;BMP_pressure;BME280_temperature;BME280_humidity;BME280_pressure;Samples;Min_cycle;Max_cycle;Signal;HPM_P1;HPM_P2
2021/05/27 00:01:07;;;;;;;8.05;5.65;;;8.70;84.50;;;;;;5022677;28;20053;-62
2021/05/27 00:03:35;;;;;;;8.15;4.93;;;8.60;84.60;;;;;;5049716;28;20486;-62
2021/05/27 00:06:03;;;;;;;8.07;4.63;;;8.60;84.80;;;;;;5049650;28;20076;-61
2021/05/27 00:08:31;;;;;;;8.48;4.85;;;8.50;85.00;;;;;;5031813;28;20048;-61
2021/05/27 00:11:12;;;;;;;8.32;5.38;;;8.40;85.10;;;;;;5049363;28;20061;-61
2021/05/27 00:13:39;;;;;;;10.27;5.18;;;8.30;85.30;;;;;;5049516;28;20053;-61
2021/05/27 00:16:07;;;;;;;6.50;5.20;;;8.30;85.40;;;;;;5031643;28;20049;-62
2021/05/27 00:18:43;;;;;;;8.77;5.28;;;8.30;85.60;;;;;;5048546;28;20045;-62
2021/05/27 00:21:11;;;;;;;9.15;5.43;;;8.20;85.80;;;;;;5049403;28;20057;-62
2021/05/27 00:23:39;;;;;;;9.13;5.35;;;8.20;85.90;;;;;;5049225;28;20064;-61
2021/05/27 00:26:06;;;;;;;6.03;5.43;;;8.10;86.00;;;;;;5049068;28;20504;-61
2021/05/27 00:28:34;;;;;;;6.90;5.10;;;8.10;86.20;;;;;;5031580;28;20061;-61
2021/05/27 00:31:02;;;;;;;7.45;5.82;;;8.00;86.30;;;;;;5031606;28;20060;-61
2021/05/27 00:33:30;;;;;;;9.55;5.70;;;7.90;86.40;;;;;;5049092;28;20065;-61
2021/05/27 00:35:57;;;;;;;6.53;4.95;;;7.90;86.60;;;;;;5049192;28;20060;-61
2021/05/27 00:38:25;;;;;;;6.45;4.85;;;7.80;86.70;;;;;;5032238;28;20053;-62
2021/05/27 00:40:53;;;;;;;8.95;5.78;;;7.80;86.80;;;;;;5034169;28;20059;-62
2021/05/27 00:43:21;;;;;;;7.85;5.22;;;7.80;86.80;;;;;;5050766;28;20075;-61
2021/05/27 00:45:49;;;;;;;6.03;5.43;;;7.80;87.00;;;;;;5050665;28;20040;-61
2021/05/27 00:51:04;;;;;;;6.07;5.47;;;7.70;87.10;;;;;;5048813;28;20057;-61
2021/05/27 00:53:32;;;;;;;7.47;5.50;;;7.70;87.20;;;;;;5031303;28;20053;-61
2021/05/27 00:56:00;;;;;;;7.53;5.47;;;7.60;87.20;;;;;;5048979;28;20064;-62
2021/05/27 00:58:30;;;;;;;7.35;5.45;;;7.60;87.30;;;;;;5030906;28;20060;-62
2021/05/27 01:01:00;;;;;;;6.90;6.20;;;7.50;87.30;;;;;;5030441;28;20492;-62
2021/05/27 01:03:28;;;;;;;8.38;5.90;;;7.50;87.50;;;;;;5048685;28;20053;-61
2021/05/27 01:05:56;;;;;;;7.65;6.10;;;7.50;87.60;;;;;;5030451;28;20507;-62
2021/05/27 01:08:24;;;;;;;8.07;6.03;;;7.40;87.60;;;;;;5030782;28;20473;-62
2021/05/27 01:10:52;;;;;;;5.57;5.07;;;7.30;87.60;;;;;;5048603;28;20053;-62
2021/05/27 01:13:24;;;;;;;9.60;7.03;;;7.30;87.70;;;;;;5030334;28;20465;-62
2021/05/27 01:15:52;;;;;;;10.27;6.13;;;7.30;87.80;;;;;;5030917;28;20060;-61
2021/05/27 01:18:22;;;;;;;7.95;6.57;;;7.30;87.80;;;;;;5030356;28;20049;-62
2021/05/27 01:20:58;;;;;;;7.05;6.35;;;7.30;87.90;;;;;;5056274;28;20064;-62
2021/05/27 01:23:27;;;;;;;9.52;6.43;;;7.20;88.00;;;;;;5050581;28;20056;-62
2021/05/27 01:25:57;;;;;;;7.80;6.50;;;7.10;88.00;;;;;;5068274;28;20059;-62
2021/05/27 01:28:29;;;;;;;9.25;7.00;;;7.10;88.10;;;;;;5049828;28;20777;-62
2021/05/27 01:30:59;;;;;;;7.45;6.68;;;7.10;88.20;;;;;;5025359;28;20059;-61
2021/05/27 01:33:32;;;;;;;;;;;7.10;88.20;;;;;;5030182;28;20048;-61
2021/05/27 01:36:00;;;;;;;7.53;6.70;;;7.10;88.20;;;;;;5030203;28;19925;-62
2021/05/27 01:38:30;;;;;;;10.43;6.75;;;7.00;88.10;;;;;;5047857;28;20053;-61
2021/05/27 01:41:01;;;;;;;9.05;6.57;;;6.90;88.20;;;;;;5048059;28;20045;-62
2021/05/27 01:43:30;;;;;;;8.33;7.43;;;6.90;88.30;;;;;;5047868;28;20072;-62
2021/05/27 01:45:59;;;;;;;10.05;7.43;;;6.90;88.40;;;;;;5047580;28;20436;-62
2021/05/27 01:48:27;;;;;;;11.32;6.78;;;6.90;88.40;;;;;;5050331;28;20052;-62
2021/05/27 01:50:55;;;;;;;10.60;7.10;;;6.80;88.50;;;;;;5050535;28;20052;-62
2021/05/27 01:53:25;;;;;;;8.38;6.85;;;6.90;88.70;;;;;;5033604;28;20531;-62
2021/05/27 01:55:54;;;;;;;9.73;7.35;;;6.90;88.60;;;;;;5033018;28;20053;-62
2021/05/27 01:58:24;;;;;;;9.98;7.50;;;6.80;88.50;;;;;;5050688;28;20489;-62
2021/05/27 02:00:52;;;;;;;10.57;6.85;;;6.80;88.50;;;;;;5050261;28;20044;-62
2021/05/27 02:03:27;;;;;;;9.75;7.28;;;6.80;88.70;;;;;;5033217;28;20056;-62
2021/05/27 02:06:05;;;;;;;12.18;8.05;;;6.80;88.60;;;;;;5032882;28;20057;-62
2021/05/27 02:08:34;;;;;;;10.82;7.32;;;6.80;88.60;;;;;;5033689;28;20057;-61
2021/05/27 02:11:05;;;;;;;10.30;7.50;;;6.70;88.70;;;;;;5033070;28;20493;-62
2021/05/27 02:13:34;;;;;;;12.02;7.95;;;6.70;88.80;;;;;;5032996;28;20784;-61
2021/05/27 02:16:05;;;;;;;10.07;8.45;;;6.70;88.80;;;;;;5032986;28;20044;-61
2021/05/27 02:18:33;;;;;;;12.55;8.13;;;6.70;88.90;;;;;;5050793;28;20056;-64
2021/05/27 02:21:01;;;;;;;10.77;8.02;;;6.60;88.90;;;;;;5016035;28;20505;-61
2021/05/27 02:23:29;;;;;;;12.02;8.25;;;6.60;89.00;;;;;;5050015;28;20061;-61
2021/05/27 02:26:14;;;;;;;13.13;8.05;;;6.50;89.00;;;;;;5050203;28;20049;-61
2021/05/27 02:28:49;;;;;;;11.88;7.95;;;6.50;89.00;;;;;;5032734;28;20048;-62
2021/05/27 02:31:18;;;;;;;10.60;7.78;;;6.50;89.00;;;;;;5049481;28;20057;-61
2021/05/27 02:33:50;;;;;;;12.57;8.32;;;6.50;89.00;;;;;;5016703;28;20060;-62
2021/05/27 02:36:25;;;;;;;14.18;8.50;;;6.40;89.10;;;;;;5050680;28;20169;-61
2021/05/27 02:38:56;;;;;;;11.55;8.45;;;6.40;89.20;;;;;;5050360;28;20052;-62
2021/05/27 02:41:28;;;;;;;17.63;8.18;;;6.40;89.20;;;;;;5050126;28;20064;-61
2021/05/27 02:43:58;;;;;;;14.75;9.18;;;6.40;89.30;;;;;;5033270;28;20044;-62
2021/05/27 02:46:29;;;;;;;10.25;8.13;;;6.30;89.20;;;;;;5046279;28;20056;-62
2021/05/27 02:48:58;;;;;;;8.93;7.45;;;6.30;89.10;;;;;;5074767;28;20515;-62
2021/05/27 02:51:28;;;;;;;15.18;9.05;;;6.30;89.10;;;;;;5074072;28;20500;-62
2021/05/27 02:53:59;;;;;;;12.80;8.45;;;6.30;89.00;;;;;;5054554;28;20052;-62
2021/05/27 02:56:27;;;;;;;13.38;8.80;;;6.30;89.00;;;;;;5074365;28;20053;-62
2021/05/27 02:58:57;;;;;;;10.60;8.27;;;6.20;89.10;;;;;;5056307;28;20053;-64
2021/05/27 03:01:25;;;;;;;11.25;8.50;;;6.20;89.30;;;;;;5035275;28;20053;-63
2021/05/27 03:03:55;;;;;;;12.05;8.57;;;6.20;89.40;;;;;;5050312;28;20056;-62
2021/05/27 03:06:23;;;;;;;11.38;8.73;;;6.20;89.50;;;;;;5036435;28;20057;-62
2021/05/27 03:08:53;;;;;;;9.90;7.93;;;6.20;89.40;;;;;;5036137;28;20057;-62
2021/05/27 03:11:21;;;;;;;14.45;9.20;;;6.20;89.40;;;;;;5048564;28;20037;-63
2021/05/27 03:14:04;;;;;;;10.65;8.50;;;6.20;89.40;;;;;;5037924;28;20485;-62
2021/05/27 03:16:55;;;;;;;12.45;8.45;;;6.20;89.40;;;;;;5039406;28;20516;-62
2021/05/27 03:19:24;;;;;;;10.13;8.68;;;6.10;89.30;;;;;;5035771;28;20056;-62
2021/05/27 03:21:52;;;;;;;11.90;7.95;;;6.10;89.40;;;;;;5072168;28;20373;-62
2021/05/27 03:24:20;;;;;;;11.20;8.18;;;6.00;89.50;;;;;;5062314;28;20064;-62
2021/05/27 03:26:51;;;;;;;13.00;9.00;;;6.00;89.60;;;;;;5036357;28;20048;-62
2021/05/27 03:29:20;;;;;;;10.30;8.38;;;6.10;89.70;;;;;;5036350;28;20053;-62
2021/05/27 03:31:48;;;;;;;10.57;8.02;;;6.10;89.60;;;;;;5036971;28;20058;-62
2021/05/27 03:34:15;;;;;;;10.38;8.23;;;6.00;89.50;;;;;;5019520;28;20061;-61
2021/05/27 03:36:43;;;;;;;9.88;7.97;;;6.00;89.40;;;;;;5035275;28;20052;-61
2021/05/27 03:39:15;;;;;;;13.63;8.52;;;6.00;89.40;;;;;;5034285;28;20060;-62
2021/05/27 03:41:43;;;;;;;12.88;8.10;;;6.00;89.40;;;;;;5029493;28;20045;-62
2021/05/27 03:44:12;;;;;;;11.43;8.70;;;6.00;89.40;;;;;;5040784;28;20045;-61
2021/05/27 03:46:44;;;;;;;11.82;8.77;;;5.90;89.40;;;;;;5023892;28;20048;-62
2021/05/27 03:49:11;;;;;;;15.63;9.45;;;5.90;89.60;;;;;;5040553;28;20056;-62
2021/05/27 03:51:40;;;;;;;12.98;9.05;;;5.90;89.60;;;;;;5024523;28;20045;-62
2021/05/27 03:54:09;;;;;;;14.32;9.95;;;5.90;89.70;;;;;;5025507;28;20050;-62
2021/05/27 03:56:37;;;;;;;12.98;9.45;;;5.90;89.80;;;;;;5040624;28;20053;-62
2021/05/27 04:02:15;;;;;;;12.38;9.40;;;5.90;89.80;;;;;;5063907;28;20806;-62
2021/05/27 04:07:41;;;;;;;10.43;8.82;;;5.90;89.90;;;;;;5072962;28;20049;-61
2021/05/27 04:10:09;;;;;;;11.02;9.07;;;5.90;89.90;;;;;;5073038;28;20048;-61
2021/05/27 04:12:47;;;;;;;14.70;9.70;;;5.90;90.00;;;;;;5073057;28;20489;-62
2021/05/27 04:15:32;;;;;;;14.18;10.02;;;6.00;90.10;;;;;;5057118;28;20051;-62
2021/05/27 04:18:05;;;;;;;12.02;8.63;;;6.00;90.10;;;;;;5072439;28;20417;-62
2021/05/27 04:20:40;;;;;;;11.20;8.70;;;6.00;90.00;;;;;;5072908;28;20059;-62
2021/05/27 04:23:15;;;;;;;13.90;9.43;;;6.00;90.00;;;;;;5072676;28;20057;-62
2021/05/27 04:25:43;;;;;;;11.32;9.65;;;6.10;90.00;;;;;;5072661;28;20056;-63
2021/05/27 04:28:10;;;;;;;12.90;8.13;;;6.10;90.40;;;;;;5071912;28;20688;-63
2021/05/27 04:33:25;;;;;;;10.20;5.90;;;7.00;92.30;;;;;;5052727;28;20067;-62
2021/05/27 04:35:52;;;;;;;6.72;6.07;;;7.80;90.10;;;;;;5034650;28;20060;-63
2021/05/27 04:38:20;;;;;;;10.18;6.40;;;8.60;87.50;;;;;;5052400;28;20061;-62
2021/05/27 04:40:48;;;;;;;6.70;5.78;;;9.30;85.20;;;;;;5052370;28;20054;-64
2021/05/27 04:43:18;;;;;;;6.65;5.82;;;9.90;83.00;;;;;;5052655;28;20060;-63
2021/05/27 04:45:45;;;;;;;6.03;5.43;;;10.60;81.10;;;;;;5034271;28;20057;-63
2021/05/27 04:48:15;;;;;;;6.53;5.47;;;11.20;79.50;;;;;;5016389;28;20599;-64
2021/05/27 04:50:46;;;;;;;7.38;5.10;;;11.80;77.90;;;;;;5031008;28;20045;-64
2021/05/27 04:53:16;;;;;;;7.93;4.93;;;12.30;76.10;;;;;;5045679;28;20056;-63
2021/05/27 04:55:44;;;;;;;5.90;4.50;;;12.80;74.50;;;;;;5067534;28;20052;-63
2021/05/27 04:58:12;;;;;;;6.75;4.60;;;13.40;72.70;;;;;;5068872;28;20052;-64
2021/05/27 05:00:40;;;;;;;5.38;4.80;;;14.00;70.70;;;;;;5043950;28;20055;-64
2021/05/27 05:03:08;;;;;;;5.65;4.40;;;14.60;68.90;;;;;;5048018;28;20057;-64
2021/05/27 05:05:37;;;;;;;5.68;4.78;;;15.20;67.20;;;;;;5048288;28;20531;-64
2021/05/27 05:08:05;;;;;;;6.88;4.72;;;15.60;65.60;;;;;;5030077;28;20428;-64
2021/05/27 05:10:33;;;;;;;6.40;4.45;;;16.10;64.00;;;;;;5031259;28;20505;-63
2021/05/27 05:13:01;;;;;;;5.60;4.43;;;16.60;62.50;;;;;;5048536;28;20061;-63
2021/05/27 05:15:31;;;;;;;4.88;4.45;;;17.00;61.10;;;;;;5030753;28;20057;-63
2021/05/27 05:18:02;;;;;;;7.85;5.18;;;17.30;59.60;;;;;;5047663;28;20053;-64
2021/05/27 05:20:36;;;;;;;6.47;4.57;;;17.80;58.40;;;;;;5048193;28;20063;-63
2021/05/27 05:23:05;;;;;;;7.78;4.63;;;18.20;57.20;;;;;;5048878;28;20052;-64
2021/05/27 05:25:34;;;;;;;5.97;4.30;;;18.50;56.50;;;;;;5068026;28;20059;-63
2021/05/27 05:28:03;;;;;;;5.85;4.65;;;18.90;55.30;;;;;;5068017;28;20052;-64
2021/05/27 05:30:31;;;;;;;8.02;4.60;;;19.30;54.20;;;;;;5062519;28;20067;-63
2021/05/27 05:33:00;;;;;;;6.80;4.75;;;19.60;53.20;;;;;;5047744;28;20056;-64
2021/05/27 05:35:28;;;;;;;6.13;4.30;;;19.90;52.30;;;;;;5014009;28;20056;-63
2021/05/27 05:37:56;;;;;;;5.10;4.38;;;20.20;51.50;;;;;;5047863;28;20052;-64
2021/05/27 05:40:26;;;;;;;5.82;4.65;;;20.50;50.80;;;;;;5048198;28;20079;-64
2021/05/27 05:42:56;;;;;;;8.02;4.97;;;20.80;50.00;;;;;;5013841;28;20053;-64
2021/05/27 05:45:26;;;;;;;6.15;4.47;;;21.10;49.40;;;;;;5047825;28;20164;-64
2021/05/27 05:47:58;;;;;;;7.97;4.60;;;21.40;48.70;;;;;;5047466;28;20045;-63
2021/05/27 05:50:47;;;;;;;7.25;4.78;;;21.80;48.00;;;;;;5048021;28;20059;-63
2021/05/27 05:53:18;;;;;;;9.05;4.95;;;22.00;47.50;;;;;;5046807;28;20053;-64
2021/05/27 05:55:47;;;;;;;6.63;4.80;;;22.30;47.10;;;;;;5047455;28;20060;-64
2021/05/27 05:58:15;;;;;;;6.38;5.22;;;22.60;46.60;;;;;;5047388;28;20059;-63
2021/05/27 06:00:44;;;;;;;8.85;5.35;;;22.90;45.80;;;;;;5047578;28;20068;-64
2021/05/27 06:03:13;;;;;;;6.78;6.03;;;23.20;45.40;;;;;;5047586;28;20465;-64
2021/05/27 06:05:59;;;;;;;11.88;5.65;;;23.30;44.70;;;;;;5047371;28;20053;-65
2021/05/27 06:08:45;;;;;;;8.05;5.63;;;23.40;44.60;;;;;;5029984;28;20056;-64
2021/05/27 06:11:13;;;;;;;6.93;5.20;;;23.50;44.50;;;;;;5047742;28;20045;-65
2021/05/27 06:13:40;;;;;;;7.95;4.90;;;23.70;44.00;;;;;;5029432;28;20057;-66
2021/05/27 06:16:08;;;;;;;5.70;4.80;;;23.80;43.70;;;;;;5047187;28;20060;-64
2021/05/27 06:18:37;;;;;;;8.00;5.22;;;24.00;43.10;;;;;;5029556;28;20092;-63
2021/05/27 06:21:26;;;;;;;7.43;5.03;;;24.10;42.80;;;;;;5029383;28;20079;-64
2021/05/27 06:23:56;;;;;;;5.78;5.28;;;24.30;42.50;;;;;;5025123;28;20068;-65
2021/05/27 06:26:23;;;;;;;9.95;5.32;;;24.40;42.10;;;;;;5054346;28;20057;-63
2021/05/27 06:28:51;;;;;;;5.55;4.95;;;24.60;41.90;;;;;;5025815;28;20057;-64
2021/05/27 06:31:19;;;;;;;9.15;5.70;;;24.70;41.50;;;;;;5048718;28;20485;-63
2021/05/27 06:33:49;;;;;;;6.75;5.55;;;24.80;41.30;;;;;;5048833;28;20056;-64
2021/05/27 06:36:17;;;;;;;7.93;5.22;;;24.90;40.90;;;;;;5043960;28;20489;-64
2021/05/27 06:38:45;;;;;;;6.22;5.38;;;25.10;40.50;;;;;;5062958;28;20503;-65
2021/05/27 06:41:18;;;;;;;8.48;5.30;;;25.30;40.20;;;;;;5049061;28;20049;-63
2021/05/27 06:43:47;;;;;;;8.45;5.82;;;25.40;40.00;;;;;;5066932;28;20223;-64
2021/05/27 06:46:15;;;;;;;7.20;5.85;;;25.40;39.60;;;;;;5065951;28;20075;-64
2021/05/27 06:48:43;;;;;;;7.78;5.45;;;25.30;39.60;;;;;;5061618;28;20060;-64
2021/05/27 06:51:11;;;;;;;8.32;5.50;;;25.30;39.50;;;;;;5063031;28;20112;-65
2021/05/27 06:53:39;;;;;;;10.80;5.75;;;25.40;39.40;;;;;;5047626;28;20040;-65
2021/05/27 06:56:09;;;;;;;5.90;5.28;;;25.60;39.10;;;;;;5045813;28;20399;-64
2021/05/27 06:58:37;;;;;;;6.15;5.43;;;25.70;38.80;;;;;;5065228;28;20044;-66
2021/05/27 07:01:05;;;;;;;5.38;4.88;;;25.70;38.10;;;;;;5042852;28;20049;-64
2021/05/27 07:03:33;;;;;;;4.88;4.25;;;25.30;37.90;;;;;;5062932;28;20052;-65
2021/05/27 07:06:05;;;;;;;5.10;4.10;;;24.90;37.70;;;;;;5041436;28;20059;-64
2021/05/27 07:08:33;;;;;;;7.03;4.57;;;24.60;38.00;;;;;;5061711;28;20057;-64
2021/05/27 07:11:01;;;;;;;5.95;4.50;;;24.40;38.60;;;;;;5029527;28;20052;-64
2021/05/27 07:13:29;;;;;;;5.28;3.90;;;24.50;38.50;;;;;;5041820;28;20061;-64
2021/05/27 07:15:57;;;;;;;3.92;3.10;;;24.80;38.60;;;;;;5017443;28;20050;-64
2021/05/27 07:18:25;;;;;;;4.07;3.60;;;25.00;37.40;;;;;;5043302;28;20069;-64
2021/05/27 07:20:52;;;;;;;4.45;3.55;;;24.80;36.30;;;;;;5045728;28;20063;-64
2021/05/27 07:23:20;;;;;;;4.78;2.95;;;24.40;37.10;;;;;;5053503;28;20064;-64
2021/05/27 07:25:48;;;;;;;3.25;2.95;;;24.30;37.10;;;;;;5064742;28;20032;-64
2021/05/27 07:28:17;;;;;;;3.78;3.38;;;24.30;36.90;;;;;;5065240;28;20793;-66
2021/05/27 07:30:44;;;;;;;6.07;3.28;;;24.20;36.60;;;;;;5042328;28;20057;-63
2021/05/27 07:33:12;;;;;;;3.10;2.80;;;24.10;37.10;;;;;;5051221;28;20119;-64
2021/05/27 07:35:40;;;;;;;9.05;3.47;;;24.30;37.30;;;;;;5069245;28;20064;-64
2021/05/27 07:38:08;;;;;;;4.68;2.97;;;24.80;37.10;;;;;;5035295;28;20044;-64
2021/05/27 07:40:36;;;;;;;4.28;3.15;;;25.10;36.70;;;;;;5069922;28;20049;-64
2021/05/27 07:43:04;;;;;;;6.35;3.17;;;25.40;36.30;;;;;;5070126;28;20052;-65
2021/05/27 07:45:32;;;;;;;4.55;2.60;;;25.60;35.80;;;;;;5029795;28;20055;-65
2021/05/27 07:47:59;;;;;;;3.75;2.78;;;25.80;34.60;;;;;;5051625;28;20695;-65
2021/05/27 07:50:28;;;;;;;3.97;2.90;;;25.70;34.70;;;;;;5068909;28;20044;-65
2021/05/27 07:52:57;;;;;;;3.70;2.63;;;25.60;34.20;;;;;;5065343;28;20045;-64
2021/05/27 07:55:26;;;;;;;2.42;2.22;;;25.30;34.30;;;;;;5060075;28;20072;-60
2021/05/27 07:57:54;;;;;;;3.63;2.53;;;25.30;34.40;;;;;;5049397;28;20067;-60
2021/05/27 08:00:22;;;;;;;5.15;2.25;;;25.50;33.80;;;;;;5041906;28;20049;-61
2021/05/27 08:02:50;;;;;;;2.38;2.10;;;25.70;33.20;;;;;;5063478;28;20507;-61
2021/05/27 08:05:20;;;;;;;3.50;2.08;;;26.00;33.50;;;;;;5069107;28;20048;-60
2021/05/27 08:07:49;;;;;;;2.30;1.90;;;26.50;33.20;;;;;;5034379;28;20767;-62
2021/05/27 08:10:17;;;;;;;2.47;1.80;;;27.00;32.10;;;;;;5051247;28;20052;-60
2021/05/27 08:12:45;;;;;;;2.38;1.55;;;27.30;31.70;;;;;;5049884;28;20041;-61
2021/05/27 08:15:13;;;;;;;3.67;2.30;;;27.60;31.10;;;;;;5051276;28;20444;-62
2021/05/27 08:17:40;;;;;;;2.45;1.65;;;27.60;30.80;;;;;;5066492;28;20064;-60
2021/05/27 08:20:10;;;;;;;3.85;1.70;;;27.60;30.70;;;;;;5049510;28;20053;-60
2021/05/27 08:22:38;;;;;;;2.67;1.80;;;27.30;29.30;;;;;;5067185;28;20433;-59
2021/05/27 08:25:06;;;;;;;5.57;2.03;;;26.30;29.80;;;;;;5067560;28;20584;-60
2021/05/27 08:27:34;;;;;;;4.28;1.90;;;24.90;31.20;;;;;;5067593;28;20044;-60
2021/05/27 08:30:07;;;;;;;3.67;1.73;;;23.90;33.20;;;;;;5065420;28;20484;-60
2021/05/27 08:32:35;;;;;;;3.97;1.85;;;23.30;34.50;;;;;;5048960;28;20057;-67
2021/05/27 08:35:06;;;;;;;2.75;1.80;;;22.50;35.60;;;;;;5031851;28;20053;-61
2021/05/27 08:37:34;;;;;;;2.70;1.98;;;21.80;37.00;;;;;;5038506;28;20033;-62
2021/05/27 08:40:04;;;;;;;2.40;1.98;;;21.10;38.00;;;;;;5069159;28;20048;-60
2021/05/27 08:42:34;;;;;;;4.65;1.88;;;20.70;38.80;;;;;;5051081;28;20049;-61
2021/05/27 08:45:04;;;;;;;2.13;1.90;;;20.60;39.50;;;;;;5069144;28;20061;-61
2021/05/27 08:47:32;;;;;;;3.03;1.60;;;20.70;40.10;;;;;;5068861;28;20048;-60
2021/05/27 08:50:02;;;;;;;5.90;1.50;;;20.80;40.40;;;;;;5050566;28;20060;-60
2021/05/27 08:52:30;;;;;;;4.25;1.88;;;20.80;40.20;;;;;;5050858;28;20056;-60
2021/05/27 08:54:58;;;;;;;5.13;2.00;;;20.80;40.30;;;;;;5054486;28;20049;-66
2021/05/27 08:57:27;;;;;;;2.95;1.80;;;20.70;40.30;;;;;;5013193;28;20520;-65
2021/05/27 08:59:55;;;;;;;2.50;1.73;;;20.40;40.40;;;;;;5030689;28;20057;-65
2021/05/27 09:02:23;;;;;;;3.83;1.90;;;20.20;40.80;;;;;;5020664;28;20055;-68
2021/05/27 09:04:51;;;;;;;4.88;1.80;;;20.00;41.30;;;;;;5068438;28;20060;-65
2021/05/27 09:07:18;;;;;;;2.28;1.70;;;19.80;41.80;;;;;;5050089;28;20071;-70
2021/05/27 09:09:58;;;;;;;3.20;2.00;;;19.60;42.20;;;;;;5028693;28;20048;-69
2021/05/27 09:12:30;;;;;;;4.97;1.80;;;19.40;42.50;;;;;;5046689;28;20053;-68
2021/05/27 09:15:00;;;;;;;2.85;1.77;;;19.40;42.70;;;;;;5046593;28;20049;-65
2021/05/27 09:17:43;;;;;;;2.75;2.10;;;19.50;42.90;;;;;;5046850;28;20045;-66
2021/05/27 09:20:16;;;;;;;2.58;1.83;;;19.80;42.80;;;;;;5066230;28;20053;-66
2021/05/27 09:22:46;;;;;;;2.90;1.85;;;19.90;42.60;;;;;;5031559;28;20684;-66
2021/05/27 09:25:25;;;;;;;2.85;1.95;;;19.80;42.20;;;;;;5057084;28;20332;-66
2021/05/27 09:27:54;;;;;;;3.58;1.58;;;19.60;42.50;;;;;;5021339;28;20405;-66
2021/05/27 09:30:22;;;;;;;3.95;1.73;;;19.50;42.60;;;;;;5028409;28;20065;-67
2021/05/27 09:33:07;;;;;;;3.63;1.75;;;19.60;43.00;;;;;;5028491;28;20049;-66
2021/05/27 09:35:34;;;;;;;10.13;2.17;;;19.60;42.80;;;;;;5012274;28;20540;-66
2021/05/27 09:38:03;;;;;;;4.07;1.73;;;19.60;42.70;;;;;;5028389;28;20128;-66
2021/05/27 09:40:43;;;;;;;5.07;1.50;;;19.50;42.80;;;;;;5047998;28;20409;-67
2021/05/27 09:43:19;;;;;;;4.65;1.95;;;19.50;42.80;;;;;;5026772;28;20042;-69
2021/05/27 09:46:08;;;;;;;3.30;1.55;;;19.60;42.60;;;;;;5062832;28;20417;-67
2021/05/27 09:48:36;;;;;;;1.88;1.40;;;19.70;42.50;;;;;;5049674;28;20056;-67
2021/05/27 09:51:04;;;;;;;3.58;1.38;;;19.80;42.40;;;;;;5067271;28;20071;-69
2021/05/27 09:53:34;;;;;;;2.67;1.25;;;20.00;42.40;;;;;;5066099;28;20051;-66
2021/05/27 09:56:05;;;;;;;6.85;1.33;;;20.10;42.30;;;;;;5067879;28;20428;-67
2021/05/27 09:58:51;;;;;;;2.75;1.10;;;20.20;42.00;;;;;;5049625;28;20063;-66
2021/05/27 10:01:20;;;;;;;6.90;1.10;;;20.10;41.60;;;;;;5030864;28;20063;-70
2021/05/27 10:03:48;;;;;;;3.33;1.30;;;20.10;41.80;;;;;;5067203;28;20047;-72
2021/05/27 10:06:16;;;;;;;2.47;1.00;;;20.20;41.60;;;;;;5049027;28;20865;-73
2021/05/27 10:08:48;;;;;;;4.72;1.15;;;20.30;41.50;;;;;;5049262;28;20487;-70
2021/05/27 10:11:17;;;;;;;2.50;1.15;;;20.40;41.10;;;;;;5067200;28;20056;-70
2021/05/27 10:13:45;;;;;;;2.58;1.27;;;20.60;41.20;;;;;;5049539;28;20119;-72
2021/05/27 10:16:19;;;;;;;3.50;1.40;;;20.80;41.20;;;;;;5046535;28;20408;-72
2021/05/27 10:18:51;;;;;;;2.38;1.20;;;21.10;40.60;;;;;;5049519;28;20347;-66
2021/05/27 10:21:19;;;;;;;6.82;1.20;;;21.10;39.80;;;;;;5067577;28;20401;-69
2021/05/27 10:23:52;;;;;;;1.60;1.08;;;21.00;39.80;;;;;;5067163;28;20048;-68
2021/05/27 10:26:21;;;;;;;1.95;1.25;;;21.00;40.00;;;;;;5049662;28;20063;-66
2021/05/27 10:29:09;;;;;;;1.92;1.15;;;21.00;39.90;;;;;;5049172;28;20057;-70
2021/05/27 10:31:43;;;;;;;5.35;1.10;;;21.10;39.40;;;;;;5063896;28;20063;-70
2021/05/27 10:34:48;;;;;;;1.98;1.40;;;21.20;39.10;;;;;;5067439;28;20041;-67
2021/05/27 10:37:34;;;;;;;2.80;1.08;;;21.20;38.60;;;;;;5034615;28;20064;-69
2021/05/27 10:40:23;;;;;;;4.50;1.30;;;20.90;38.40;;;;;;5060149;28;20060;-72
2021/05/27 10:42:57;;;;;;;3.40;1.20;;;20.70;38.30;;;;;;5066013;28;20052;-64
2021/05/27 10:45:36;;;;;;;2.63;1.08;;;20.60;38.70;;;;;;5066900;28;20064;-73
2021/05/27 10:48:13;;;;;;;3.40;0.90;;;20.70;38.80;;;;;;5066074;28;20044;-69
2021/05/27 10:53:37;;;;;;;2.58;1.10;;;21.10;38.10;;;;;;5067101;28;20049;-73
2021/05/27 10:56:07;;;;;;;2.60;1.20;;;21.40;37.70;;;;;;5031893;28;20068;-74
2021/05/27 11:01:20;;;;;;;2.75;1.20;;;21.70;36.60;;;;;;5054967;28;20061;-66
2021/05/27 11:03:49;;;;;;;3.30;1.10;;;21.80;36.80;;;;;;4982238;28;20533;-63
2021/05/27 11:06:27;;;;;;;3.65;1.05;;;21.70;36.70;;;;;;5010538;28;20421;-63
2021/05/27 11:09:24;;;;;;;2.35;1.27;;;21.50;36.80;;;;;;5029744;28;20080;-64
2021/05/27 11:12:12;;;;;;;3.33;1.40;;;21.30;37.30;;;;;;5030128;28;20056;-63
2021/05/27 11:14:46;;;;;;;3.72;1.52;;;21.20;37.70;;;;;;5030453;28;20064;-75
2021/05/27 11:17:17;;;;;;;2.40;1.30;;;21.00;37.70;;;;;;5018411;28;20527;-75
2021/05/27 11:20:09;;;;;;;2.72;1.10;;;20.80;38.30;;;;;;5019236;28;20516;-72
2021/05/27 11:25:16;;;;;;;2.45;1.38;;;20.80;38.50;;;;;;5069843;28;20060;-73
2021/05/27 11:27:53;;;;;;;3.80;1.15;;;20.80;38.40;;;;;;5069048;28;20504;-63
2021/05/27 11:33:29;;;;;;;3.35;1.00;;;20.80;38.20;;;;;;5050236;28;20493;-62
2021/05/27 11:36:06;;;;;;;1.60;1.27;;;20.90;38.80;;;;;;5050066;28;20056;-65
2021/05/27 11:38:38;;;;;;;3.40;1.30;;;21.20;38.40;;;;;;5031833;28;20481;-63
2021/05/27 11:41:11;;;;;;;3.83;1.27;;;21.40;38.00;;;;;;5032407;28;20053;-65
2021/05/27 11:43:45;;;;;;;5.82;1.42;;;21.70;37.50;;;;;;5063152;28;20060;-65
2021/05/27 11:46:25;;;;;;;1.40;0.88;;;21.80;37.30;;;;;;5069761;28;20056;-63
2021/05/27 11:51:23;;;;;;;3.22;1.02;;;22.00;36.40;;;;;;5066422;28;20048;-63
2021/05/27 11:53:54;;;;;;;2.47;1.20;;;22.00;36.00;;;;;;5035178;28;20063;-63
2021/05/27 11:56:43;;;;;;;5.97;1.42;;;21.90;35.90;;;;;;5038574;28;20473;-63
2021/05/27 11:59:18;;;;;;;2.03;1.25;;;21.80;35.70;;;;;;5011930;28;20049;-64
2021/05/27 12:01:58;;;;;;;2.85;1.00;;;21.80;35.60;;;;;;5045548;28;20065;-66
2021/05/27 12:04:30;;;;;;;2.50;1.27;;;21.60;35.80;;;;;;5050012;28;20060;-64
2021/05/27 12:07:01;;;;;;;1.70;1.08;;;21.50;36.20;;;;;;5049399;28;20083;-63
2021/05/27 12:09:42;;;;;;;1.23;0.90;;;21.50;36.40;;;;;;5031965;28;20068;-64
2021/05/27 12:12:18;;;;;;;2.00;1.08;;;21.60;36.50;;;;;;5031908;28;20051;-65
2021/05/27 12:14:58;;;;;;;1.10;0.80;;;21.70;36.60;;;;;;5068232;28;20524;-68
2021/05/27 12:17:30;;;;;;;1.85;1.02;;;21.80;36.60;;;;;;5034778;28;20060;-65
2021/05/27 12:20:07;;;;;;;2.10;1.00;;;22.00;35.90;;;;;;5049676;28;20044;-69
2021/05/27 12:22:52;;;;;;;5.88;1.10;;;22.30;35.50;;;;;;5066469;28;20060;-63
2021/05/27 12:25:22;;;;;;;1.17;0.90;;;22.60;34.90;;;;;;5067814;28;20410;-63
2021/05/27 12:27:53;;;;;;;1.95;0.95;;;22.80;35.10;;;;;;5044287;28;20045;-65
2021/05/27 12:30:25;;;;;;;2.65;1.00;;;22.90;34.90;;;;;;5060940;28;20052;-63
2021/05/27 12:32:55;;;;;;;1.50;0.70;;;23.00;34.50;;;;;;5063205;28;20052;-63
2021/05/27 12:35:31;;;;;;;2.95;0.80;;;22.90;34.50;;;;;;5067964;28;20052;-61
2021/05/27 12:38:00;;;;;;;1.55;0.90;;;22.80;34.30;;;;;;5064029;28;20215;-63
2021/05/27 12:40:36;;;;;;;4.82;0.90;;;22.60;34.70;;;;;;5057875;28;20049;-62
2021/05/27 12:43:20;;;;;;;2.72;1.15;;;22.40;34.70;;;;;;5045744;28;20063;-64
2021/05/27 12:45:49;;;;;;;1.25;1.00;;;22.30;34.70;;;;;;5034099;28;20497;-62
2021/05/27 12:48:17;;;;;;;1.58;1.00;;;22.20;34.90;;;;;;5036953;28;20060;-63
2021/05/27 12:51:04;;;;;;;1.98;1.10;;;22.00;34.90;;;;;;5046187;28;20037;-62
2021/05/27 12:53:38;;;;;;;4.22;0.93;;;21.90;34.70;;;;;;5027110;28;20058;-66
2021/05/27 12:56:20;;;;;;;1.48;1.10;;;21.80;34.90;;;;;;5045195;28;20123;-65
2021/05/27 12:58:50;;;;;;;1.67;1.23;;;21.80;34.90;;;;;;5023846;28;20053;-64
2021/05/27 13:01:36;;;;;;;1.38;0.93;;;21.80;35.00;;;;;;5038357;28;20053;-63
2021/05/27 13:04:23;;;;;;;3.72;0.90;;;21.80;35.00;;;;;;5056880;28;20057;-63
2021/05/27 13:07:12;;;;;;;1.75;1.17;;;21.90;35.00;;;;;;5019668;28;20827;-64
2021/05/27 13:09:54;;;;;;;1.95;1.00;;;22.00;34.80;;;;;;5043464;28;21654;-65
2021/05/27 13:12:23;;;;;;;1.48;1.00;;;22.10;34.60;;;;;;5047092;28;20044;-63
2021/05/27 13:15:20;;;;;;;4.28;1.00;;;22.10;34.50;;;;;;5055201;28;20317;-67
2021/05/27 13:18:09;;;;;;;1.55;1.10;;;22.20;34.10;;;;;;5014989;28;20045;-68
2021/05/27 13:20:55;;;;;;;1.90;1.00;;;22.20;34.20;;;;;;5036522;28;20060;-68
2021/05/27 13:23:26;;;;;;;5.47;1.10;;;22.20;34.30;;;;;;5032287;28;20053;-67
2021/05/27 13:26:11;;;;;;;3.38;1.20;;;22.30;34.50;;;;;;5024913;28;20058;-65
2021/05/27 13:28:42;;;;;;;1.80;1.00;;;22.70;34.50;;;;;;5027221;28;20049;-70
2021/05/27 13:31:10;;;;;;;2.13;1.05;;;22.80;34.20;;;;;;5022347;28;20054;-70
2021/05/27 13:33:38;;;;;;;2.53;1.70;;;22.90;33.80;;;;;;5030072;28;20386;-69
2021/05/27 13:36:06;;;;;;;5.45;1.83;;;23.00;33.90;;;;;;5032579;28;20041;-78